Tropical Cyclones
[Index]
Main Index Home Page Stock Weather Photos Extreme Storms Discussion Storm News and Storm Chasing Reports Tropical Cyclones / Hurricanes / Typhoons Weather Data and Links Wild Fires / Bushfires Weather Observation Techniques Weather Picture Catalogue Tornado Pictures and Reports Stock Video Footage and DVDs for sale
Season 2001-2002 Tropical Cyclone KESINY Track Map
Season 2001-2002 Summaries: [BoM-AU] [JTWC-AU] [JTWC-SIO] [JTWC-SPAC] [JTWC-SH]
<<- Previous TC | JTWC 2001-2002 Season | Next TC ->>

click for intensity scale information  Lat/long Grid: Show Hide

 Date Labels: Show Hide

Joint Typhoon Warning Centre Cyclone Data

Name: KESINY

02 May 2002 06:00 UTC to 11 May 2002 18:00 UTC

    date/time    lat    long     hPa   cat  kts
2002-05-02 06    7.3    62.0    1002         25          
2002-05-02 12    7.7    62.4    1002         25          
2002-05-02 18    8.2    63.5    1002         25          
2002-05-03 00    8.5    65.0    1002         25          
2002-05-03 06    8.9    65.5     997         35          
2002-05-03 12    9.2    65.8     997         35          
2002-05-03 18    9.5    66.1     997         35          
2002-05-04 00    9.7    66.3     997         35          
2002-05-04 06    9.8    66.2     994    1    40          
2002-05-04 12    9.9    66.1     994    1    40          
2002-05-04 18   10.0    65.8     991    1    45          
2002-05-05 00   10.0    65.1     991    1    45          
2002-05-05 06   10.1    64.3     991    1    45          
2002-05-05 12   10.3    63.4     991    1    45          
2002-05-05 18   10.4    62.4     984    2    55          
2002-05-06 00   10.4    61.7     984    2    55          
2002-05-06 06   10.5    61.1     976    2    65          
2002-05-06 12   10.6    60.6     976    2    65          
2002-05-06 18   10.7    60.1     976    2    65          
2002-05-07 00   10.8    59.6     976    2    65          
2002-05-07 06   11.0    59.0     984    2    55          
2002-05-07 12   11.2    58.3     987    1    50          
2002-05-07 18   11.4    57.6     987    1    50          
2002-05-08 00   11.6    56.6     991    1    45          
2002-05-08 06   11.6    55.5     991    1    45          
2002-05-08 12   11.8    54.2     991    1    45          
2002-05-08 18   12.0    53.1     991    1    45          
2002-05-09 00   12.2    52.2     984    2    55          
2002-05-09 06   12.4    51.2     980    2    60          
2002-05-09 12   12.6    50.0     976    2    65          
2002-05-09 18   12.8    49.0     984    2    55          
2002-05-10 00   13.2    48.0     991    1    45          
2002-05-10 06   13.6    47.3     994    1    40          
2002-05-10 12   14.4    47.1     997         35          
2002-05-10 18   15.3    46.9    1000         30          
2002-05-11 00   15.6    46.9    1000         30          
2002-05-11 06   15.7    46.9    1002         25          
2002-05-11 12   15.8    46.9    1002         25          
2002-05-11 18   15.9    46.9    1002         25          
Winds are 1-min average.

Tropical cyclone tracks developed by Michael Bath using data from the Joint Typhoon Warning Centre Best Tracks and Google Maps.


[Australian Severe Weather index] [Copyright Notice] [Email Contacts] [Search This Site] [Privacy Policy]
Document: tropical_cyclone_kesiny.htm Updated: 28 June 2017